Time;durP1;ratioP1;P1;durP2;ratioP2;P2;SDS_P1;SDS_P2;PMS_P1;PMS_P2;Temp;Humidity;BMP_temperature;BMP_pressure;BME280_temperature;BME280_humidity;BME280_pressure;Samples;Min_cycle;Max_cycle;Signal;HPM_P1;HPM_P2
2022/10/10 00:01:58;;;;;;;6.88;4.50;;;;;;;8.45;81.20;101288.09;5055241;28;20032;-85
2022/10/10 00:04:24;;;;;;;5.33;4.07;;;;;;;8.43;81.49;101296.38;5055479;28;20481;-86
2022/10/10 00:06:49;;;;;;;5.40;4.35;;;;;;;8.39;81.73;101292.38;5072306;28;20133;-85
2022/10/10 00:09:15;;;;;;;8.50;4.10;;;;;;;8.35;81.67;101285.66;5037889;28;20048;-85
2022/10/10 00:11:43;;;;;;;6.83;4.93;;;;;;;8.38;81.81;101296.91;5055404;28;20048;-85
2022/10/10 00:14:17;;;;;;;6.97;4.38;;;;;;;8.34;82.37;101292.94;5055255;28;20036;-85
2022/10/10 00:16:43;;;;;;;8.52;5.05;;;;;;;8.34;82.76;101295.63;5071942;28;20040;-85
2022/10/10 00:19:08;;;;;;;7.67;4.47;;;;;;;8.22;83.03;101270.97;5072297;28;20036;-85
2022/10/10 00:21:34;;;;;;;9.50;4.53;;;;;;;8.29;82.79;101283.72;5075484;27;20113;-85
2022/10/10 00:24:00;;;;;;;8.55;4.40;;;;;;;8.30;83.02;101293.47;5099859;27;20061;-85
2022/10/10 00:26:25;;;;;;;9.03;4.77;;;;;;;8.25;82.69;101283.25;5116861;27;20067;-85
2022/10/10 00:28:51;;;;;;;10.80;4.60;;;;;;;8.19;83.32;101287.56;5100231;27;20522;-85
2022/10/10 00:31:16;;;;;;;8.23;4.47;;;;;;;8.15;83.10;101277.28;5100263;27;20031;-85
2022/10/10 00:33:42;;;;;;;10.13;5.03;;;;;;;8.14;83.65;101281.88;5099772;27;20027;-85
2022/10/10 00:36:07;;;;;;;9.13;5.07;;;;;;;8.13;83.27;101288.28;5100401;27;20118;-86
2022/10/10 00:38:33;;;;;;;6.93;4.43;;;;;;;8.07;84.40;101272.84;5083130;28;20825;-86
2022/10/10 00:41:06;;;;;;;9.47;4.77;;;;;;;8.07;84.26;101280.94;5116482;27;20506;-86
2022/10/10 00:47:18;;;;;;;10.07;4.50;;;;;;;8.04;83.60;101271.34;5135085;27;20071;-86
2022/10/10 00:53:40;;;;;;;13.93;5.35;;;;;;;7.98;83.90;101274.78;5135006;27;20509;-85
2022/10/10 00:56:09;;;;;;;8.63;4.70;;;;;;;7.97;84.69;101273.16;5115809;27;20031;-85
2022/10/10 00:58:38;;;;;;;8.57;4.40;;;;;;;7.94;85.29;101270.78;5099954;28;20027;-85
2022/10/10 01:01:21;;;;;;;6.20;4.47;;;;;;;7.93;84.63;101279.94;5116265;28;20034;-85
2022/10/10 01:08:15;;;;;;;8.27;5.03;;;;;;;7.86;84.67;101265.50;5133392;28;20108;-85
2022/10/10 01:14:32;;;;;;;9.53;4.80;;;;;;;7.83;85.83;101255.91;5092398;28;20051;-85
2022/10/10 01:31:09;;;;;;;8.83;4.63;;;;;;;7.76;86.48;101257.66;5050337;28;20037;-86
2022/10/10 01:37:20;;;;;;;7.35;4.72;;;;;;;7.70;86.93;101256.53;5050144;28;20580;-85
2022/10/10 01:50:52;;;;;;;9.82;5.00;;;;;;;7.71;87.70;101241.19;5062317;28;20050;-85
2022/10/10 01:57:01;;;;;;;8.18;4.20;;;;;;;7.65;87.85;101237.38;5136741;27;20101;-83
2022/10/10 02:00:01;;;;;;;8.98;4.82;;;;;;;7.62;87.55;101237.75;5137688;27;20490;-84
2022/10/10 02:02:27;;;;;;;8.53;4.90;;;;;;;7.62;88.49;101235.06;5119689;27;20555;-84
2022/10/10 02:04:59;;;;;;;7.93;4.50;;;;;;;7.60;89.45;101238.94;5119447;27;20020;-84
2022/10/10 02:07:38;;;;;;;8.93;4.82;;;;;;;7.59;89.39;101229.16;5119174;27;20555;-84
2022/10/10 02:10:06;;;;;;;10.77;4.85;;;;;;;7.54;89.67;101219.78;5119266;27;20538;-84
2022/10/10 02:12:33;;;;;;;10.85;4.97;;;;;;;7.54;89.15;101221.63;5118954;27;20031;-84
2022/10/10 02:15:13;;;;;;;7.88;4.80;;;;;;;7.52;89.96;101218.28;5137170;27;20031;-84
2022/10/10 02:17:40;;;;;;;8.07;4.87;;;;;;;7.52;89.97;101216.41;5120115;27;20027;-83
2022/10/10 02:20:08;;;;;;;10.20;5.00;;;;;;;7.51;89.95;101216.59;5119103;27;20030;-84
2022/10/10 02:22:35;;;;;;;6.60;4.70;;;;;;;7.49;89.95;101216.78;5137287;27;20034;-84
2022/10/10 02:25:01;;;;;;;6.10;4.30;;;;;;;7.48;89.99;101217.81;5119369;27;20030;-83
2022/10/10 02:27:47;;;;;;;7.27;4.40;;;;;;;7.48;90.01;101215.09;5118401;27;20530;-84
2022/10/10 02:30:14;;;;;;;12.05;4.80;;;;;;;7.47;90.35;101210.75;5118991;27;20031;-84
2022/10/10 02:32:50;;;;;;;10.52;4.75;;;;;;;7.44;90.36;101203.03;5137016;27;20097;-84
2022/10/10 02:35:25;;;;;;;11.30;5.20;;;;;;;7.42;90.77;101204.22;5119078;27;20038;-84
2022/10/10 02:37:53;;;;;;;11.90;4.60;;;;;;;7.38;90.44;101201.91;5119947;27;20035;-84
2022/10/10 02:40:23;;;;;;;6.43;4.60;;;;;;;7.35;91.11;101196.03;5085101;27;20038;-84
2022/10/10 02:42:51;;;;;;;9.75;4.60;;;;;;;7.35;91.31;101199.56;5118968;27;20523;-84
2022/10/10 02:45:20;;;;;;;11.65;5.07;;;;;;;7.34;91.39;101195.19;5118831;27;20463;-84
2022/10/10 02:47:49;;;;;;;7.20;4.55;;;;;;;7.37;91.20;101194.00;5119478;27;20423;-84
2022/10/10 02:50:14;;;;;;;9.48;4.78;;;;;;;7.37;91.14;101191.28;5136869;27;20046;-83
2022/10/10 02:52:40;;;;;;;9.57;4.60;;;;;;;7.37;91.23;101189.41;5118486;27;20035;-84
2022/10/10 02:55:05;;;;;;;10.47;4.77;;;;;;;7.38;91.83;101188.41;5119344;27;20041;-83
2022/10/10 02:57:31;;;;;;;7.50;4.30;;;;;;;7.41;92.25;101184.50;5084142;27;20032;-83
2022/10/10 02:59:56;;;;;;;9.05;4.68;;;;;;;7.43;91.62;101184.31;5118483;27;20360;-83
2022/10/10 03:02:22;;;;;;;7.57;4.30;;;;;;;7.45;91.79;101185.78;5101267;27;20527;-83
2022/10/10 03:04:47;;;;;;;8.73;5.00;;;;;;;7.50;91.58;101182.50;5118276;27;20370;-83
2022/10/10 03:07:13;;;;;;;7.63;3.97;;;;;;;7.50;92.04;101174.41;5116844;27;20051;-84
2022/10/10 03:09:38;;;;;;;11.00;4.33;;;;;;;7.50;91.68;101164.47;5101306;27;20031;-83
2022/10/10 03:12:04;;;;;;;7.90;4.00;;;;;;;7.55;91.73;101172.00;5085436;27;20039;-83
2022/10/10 03:14:29;;;;;;;7.03;4.20;;;;;;;7.55;92.19;101175.53;5118502;27;20027;-83
2022/10/10 03:16:55;;;;;;;11.18;4.47;;;;;;;7.59;92.04;101172.47;5101363;27;20035;-83
2022/10/10 03:19:22;;;;;;;9.53;4.40;;;;;;;7.58;91.90;101168.94;5118559;27;20110;-84
2022/10/10 03:21:48;;;;;;;8.20;4.10;;;;;;;7.59;92.32;101173.31;5118135;27;20493;-84
2022/10/10 03:24:16;;;;;;;6.60;3.90;;;;;;;7.60;91.95;101166.88;5100988;27;20031;-84
2022/10/10 03:26:42;;;;;;;6.38;3.97;;;;;;;7.57;92.56;101169.94;5100514;27;20030;-84
2022/10/10 03:29:08;;;;;;;6.93;3.90;;;;;;;7.52;92.30;101161.59;5084105;27;20031;-84
2022/10/10 03:31:36;;;;;;;7.05;4.50;;;;;;;7.50;92.88;101164.47;5117738;27;20062;-84
2022/10/10 03:34:04;;;;;;;9.40;4.60;;;;;;;7.53;92.45;101166.78;5100695;27;20019;-84
2022/10/10 03:36:30;;;;;;;7.40;4.30;;;;;;;7.51;93.10;101166.16;5118485;27;20454;-84
2022/10/10 03:38:55;;;;;;;7.20;4.18;;;;;;;7.52;92.68;101167.00;5100400;27;20075;-84
2022/10/10 03:41:21;;;;;;;10.77;4.23;;;;;;;7.58;92.38;101168.94;5100583;27;20153;-84
2022/10/10 03:43:46;;;;;;;9.18;4.45;;;;;;;7.57;92.58;101164.53;5117893;27;20362;-83
2022/10/10 03:46:12;;;;;;;9.20;4.30;;;;;;;7.53;92.81;101168.66;5117460;27;20391;-84
2022/10/10 03:48:37;;;;;;;7.80;4.10;;;;;;;7.51;93.19;101166.16;5117957;27;20030;-83
2022/10/10 03:51:03;;;;;;;8.43;4.27;;;;;;;7.51;92.89;101171.56;5117516;27;20356;-83
2022/10/10 03:53:28;;;;;;;9.33;4.43;;;;;;;7.47;94.20;101174.78;5135450;27;20032;-84
2022/10/10 03:55:54;;;;;;;11.17;3.80;;;;;;;7.44;94.50;101175.16;5117467;27;20820;-84
2022/10/10 03:58:20;;;;;;;7.43;4.33;;;;;;;7.45;93.80;101169.59;5117261;27;20451;-84
2022/10/10 04:00:53;;;;;;;7.18;4.10;;;;;;;7.45;94.70;101168.75;5117171;27;20027;-84
2022/10/10 04:03:19;;;;;;;9.05;4.18;;;;;;;7.45;94.74;101172.28;5135690;27;20026;-84
2022/10/10 04:05:44;;;;;;;7.63;4.37;;;;;;;7.47;94.57;101169.41;5117044;27;20382;-83
2022/10/10 04:08:12;;;;;;;9.07;4.68;;;;;;;7.47;94.34;101164.84;5117225;27;20161;-84
2022/10/10 04:10:37;;;;;;;8.00;4.30;;;;;;;7.43;94.61;101171.66;5099811;27;20038;-84
2022/10/10 04:13:03;;;;;;;8.30;4.47;;;;;;;7.43;94.78;101168.94;5116855;27;20019;-84
2022/10/10 04:15:29;;;;;;;9.23;4.27;;;;;;;7.41;94.76;101168.31;5116876;27;20264;-84
2022/10/10 04:17:58;;;;;;;7.05;4.07;;;;;;;7.40;94.96;101166.63;5134851;27;20471;-84
2022/10/10 04:20:24;;;;;;;9.63;4.80;;;;;;;7.39;94.98;101170.34;5100186;27;20058;-83
2022/10/10 04:22:49;;;;;;;10.63;4.78;;;;;;;7.38;94.73;101172.22;5117034;27;20111;-83
2022/10/10 04:25:15;;;;;;;7.50;4.20;;;;;;;7.37;94.33;101169.69;5116368;27;20041;-84
2022/10/10 04:27:40;;;;;;;7.00;3.92;;;;;;;7.30;95.01;101168.75;5116885;27;20027;-84
2022/10/10 04:30:06;;;;;;;8.33;5.07;;;;;;;7.27;95.25;101171.84;5116593;27;20467;-84
2022/10/10 04:32:32;;;;;;;6.53;4.07;;;;;;;7.19;95.48;101164.66;5116507;27;20046;-84
2022/10/10 04:34:57;;;;;;;12.23;4.47;;;;;;;7.16;95.66;101170.41;5117234;27;20065;-84
2022/10/10 04:37:23;;;;;;;9.60;4.20;;;;;;;7.07;96.14;101166.13;5099492;27;20050;-83
2022/10/10 04:39:48;;;;;;;7.13;4.20;;;;;;;7.02;96.61;101169.38;5116161;27;20034;-84
2022/10/10 04:42:14;;;;;;;6.70;4.30;;;;;;;6.97;97.22;101172.63;5116930;27;20027;-83
2022/10/10 04:44:40;;;;;;;8.32;3.92;;;;;;;6.95;97.63;101172.00;5116382;27;20027;-84
2022/10/10 04:47:06;;;;;;;7.67;4.50;;;;;;;6.95;97.28;101169.31;5135266;27;20035;-83
2022/10/10 04:49:31;;;;;;;6.90;4.43;;;;;;;6.90;97.63;101166.28;5116127;27;20050;-83
2022/10/10 04:51:57;;;;;;;6.47;3.87;;;;;;;6.90;97.67;101162.78;5116411;27;20019;-84
2022/10/10 04:54:22;;;;;;;9.97;4.80;;;;;;;6.88;97.71;101167.50;5134476;27;20035;-84
2022/10/10 04:56:47;;;;;;;8.80;4.63;;;;;;;6.85;98.13;101168.72;5134673;27;20459;-84
2022/10/10 04:59:13;;;;;;;13.82;4.80;;;;;;;6.86;98.44;101164.97;5099902;28;20035;-84
2022/10/10 05:01:38;;;;;;;9.77;4.22;;;;;;;6.83;99.10;101163.47;5135233;28;20031;-84
2022/10/10 05:04:04;;;;;;;8.20;4.43;;;;;;;6.80;98.97;101169.25;5115980;28;20030;-84
2022/10/10 05:06:30;;;;;;;9.03;4.40;;;;;;;6.83;99.54;101165.34;5116182;28;20051;-84
2022/10/10 05:08:55;;;;;;;8.07;4.07;;;;;;;6.86;99.23;101162.28;5116146;28;20284;-83
2022/10/10 05:11:20;;;;;;;10.13;4.53;;;;;;;6.88;98.61;101162.09;5115706;28;20046;-84
2022/10/10 05:13:49;;;;;;;8.47;4.67;;;;;;;6.84;99.22;101148.97;5099558;28;20111;-84
2022/10/10 05:16:15;;;;;;;12.07;4.38;;;;;;;6.83;99.89;101158.09;5116244;28;20390;-84
2022/10/10 05:18:41;;;;;;;10.20;4.30;;;;;;;6.80;99.73;101158.44;5115956;28;20164;-84
2022/10/10 05:21:07;;;;;;;8.87;4.63;;;;;;;6.79;100.00;101156.81;5116219;28;20113;-83
2022/10/10 05:23:33;;;;;;;8.50;4.18;;;;;;;6.79;99.62;101154.09;5099053;28;20280;-84
2022/10/10 05:25:58;;;;;;;9.95;4.57;;;;;;;6.80;99.79;101160.31;5115808;28;20029;-84
2022/10/10 05:28:24;;;;;;;13.97;4.63;;;;;;;6.79;99.69;101161.34;5115881;28;20027;-83
2022/10/10 05:30:51;;;;;;;8.27;4.00;;;;;;;6.77;100.00;101164.22;5117449;27;20027;-83
2022/10/10 05:33:17;;;;;;;13.23;4.45;;;;;;;6.77;100.00;101160.69;5119809;27;20080;-83
2022/10/10 05:35:43;;;;;;;9.50;4.80;;;;;;;6.74;100.00;101164.59;5120031;27;20038;-84
2022/10/10 05:38:08;;;;;;;10.63;4.77;;;;;;;6.73;100.00;101170.16;5119531;27;20479;-84
2022/10/10 05:40:34;;;;;;;12.65;4.80;;;;;;;6.74;100.00;101169.16;5138166;27;20023;-84
2022/10/10 05:42:59;;;;;;;8.70;4.63;;;;;;;6.73;100.00;101165.63;5102750;27;20027;-84
2022/10/10 05:45:28;;;;;;;10.00;4.43;;;;;;;6.71;100.00;101169.53;5119622;27;20042;-84
2022/10/10 05:47:53;;;;;;;11.15;4.63;;;;;;;6.72;100.00;101166.63;5119369;27;20063;-84
2022/10/10 05:50:28;;;;;;;10.03;4.53;;;;;;;6.76;100.00;101165.25;5137780;27;20027;-88
2022/10/10 05:52:53;;;;;;;11.80;4.65;;;;;;;6.81;100.00;101159.31;5119538;27;20046;-86
2022/10/10 05:55:29;;;;;;;10.47;4.50;;;;;;;6.89;100.00;101163.78;5119444;27;20027;-87
2022/10/10 05:57:55;;;;;;;6.97;3.92;;;;;;;6.94;100.00;101166.75;5119482;27;20034;-87
2022/10/10 06:00:25;;;;;;;10.90;4.60;;;;;;;6.99;100.00;101167.06;5119842;27;20062;-86
2022/10/10 06:02:51;;;;;;;12.95;4.93;;;;;;;7.03;100.00;101169.19;5135831;27;20042;-87
2022/10/10 06:05:19;;;;;;;12.20;4.77;;;;;;;7.08;100.00;101170.50;5122283;27;20027;-86
2022/10/10 06:07:46;;;;;;;14.68;4.35;;;;;;;7.14;100.00;101173.28;5139495;27;20103;-86
2022/10/10 06:10:14;;;;;;;12.20;4.82;;;;;;;7.17;100.00;101164.81;5122975;27;20031;-87
2022/10/10 06:12:42;;;;;;;12.55;4.88;;;;;;;7.23;100.00;101167.81;5139195;27;20023;-87
2022/10/10 06:15:17;;;;;;;14.65;4.07;;;;;;;7.24;100.00;101164.94;5139092;27;20492;-86
2022/10/10 06:17:42;;;;;;;7.78;4.45;;;;;;;7.27;100.00;101163.75;5134500;27;20042;-87
2022/10/10 06:20:23;;;;;;;10.82;4.70;;;;;;;7.30;100.00;101174.97;5138936;27;20019;-86
2022/10/10 06:22:51;;;;;;;9.38;4.93;;;;;;;7.35;100.00;101177.97;5123355;27;20038;-86
2022/10/10 06:25:34;;;;;;;9.73;4.70;;;;;;;7.41;100.00;101180.94;5122295;27;20042;-86
2022/10/10 06:28:04;;;;;;;9.32;4.45;;;;;;;7.49;100.00;101180.88;5140893;27;20034;-86
2022/10/10 06:30:33;;;;;;;8.80;4.30;;;;;;;7.54;100.00;101179.28;5140071;27;20031;-86
2022/10/10 06:33:10;;;;;;;19.08;4.70;;;;;;;7.60;100.00;101177.66;5139023;27;20031;-86
2022/10/10 06:35:47;;;;;;;11.18;4.70;;;;;;;7.65;100.00;101177.13;5138952;27;20034;-87
2022/10/10 06:38:16;;;;;;;9.52;4.50;;;;;;;7.70;100.00;101180.91;5123225;27;20042;-87
2022/10/10 06:40:48;;;;;;;10.82;4.82;;;;;;;7.75;100.00;101182.22;5139034;27;20039;-87
2022/10/10 06:43:19;;;;;;;9.13;4.75;;;;;;;7.81;100.00;101184.16;5139653;27;20026;-86
2022/10/10 06:45:55;;;;;;;8.18;4.30;;;;;;;7.84;100.00;101184.63;5139521;27;20535;-87
2022/10/10 06:48:26;;;;;;;9.33;4.87;;;;;;;7.88;100.00;101191.34;5122437;27;20039;-86
2022/10/10 06:51:15;;;;;;;8.35;4.78;;;;;;;7.92;100.00;101201.78;5121520;27;20434;-86
2022/10/10 06:53:52;;;;;;;;;;;;;;;;;;;;;
2022/10/10 06:56:30;;;;;;;10.20;4.88;;;;;;;8.13;100.00;101206.38;5158324;27;20026;-86
2022/10/10 06:58:56;;;;;;;9.63;4.75;;;;;;;8.18;100.00;101204.78;5138575;27;20182;-86
2022/10/10 07:01:25;;;;;;;11.53;4.97;;;;;;;8.26;100.00;101196.53;5138845;27;20095;-87
2022/10/10 07:03:53;;;;;;;12.70;5.10;;;;;;;8.35;100.00;101196.44;5138942;27;20023;-87
2022/10/10 07:06:35;;;;;;;15.15;5.43;;;;;;;8.47;100.00;101204.91;5157238;27;20058;-87
2022/10/10 07:09:10;;;;;;;14.03;5.53;;;;;;;8.54;100.00;101198.53;5139044;27;20037;-87
2022/10/10 07:11:44;;;;;;;10.93;5.20;;;;;;;8.66;99.87;101201.53;5138958;27;20079;-86
2022/10/10 07:14:10;;;;;;;9.85;5.30;;;;;;;8.81;99.70;101201.47;5138872;27;20030;-86
2022/10/10 07:16:45;;;;;;;12.30;5.68;;;;;;;8.93;99.10;101208.03;5138437;27;20031;-86
2022/10/10 07:19:27;;;;;;;14.07;5.95;;;;;;;9.02;98.89;101207.88;5123039;27;20114;-86
2022/10/10 07:21:55;;;;;;;11.33;5.07;;;;;;;9.11;98.44;101199.44;5138368;27;20034;-85
2022/10/10 07:24:21;;;;;;;12.68;5.50;;;;;;;9.21;97.89;101209.06;5138306;27;20031;-85
2022/10/10 07:26:53;;;;;;;11.82;5.63;;;;;;;9.28;98.16;101209.94;5139242;27;20122;-84
2022/10/10 07:29:18;;;;;;;9.57;5.30;;;;;;;9.39;97.84;101214.81;5139112;27;20038;-84
2022/10/10 07:31:44;;;;;;;12.85;5.50;;;;;;;9.50;96.67;101205.28;5156582;27;20395;-84
2022/10/10 07:34:09;;;;;;;12.13;5.47;;;;;;;9.60;96.65;101211.19;5138302;27;20034;-84
2022/10/10 07:36:35;;;;;;;15.63;5.60;;;;;;;9.70;96.81;101208.13;5138710;27;20065;-85
2022/10/10 07:39:03;;;;;;;13.20;5.63;;;;;;;9.81;96.55;101210.25;5138648;27;20125;-85
2022/10/10 07:41:28;;;;;;;10.15;5.32;;;;;;;9.94;96.47;101223.03;5120989;27;20030;-84
2022/10/10 07:43:55;;;;;;;13.37;6.00;;;;;;;10.07;95.69;101224.97;5137726;27;20450;-85
2022/10/10 07:46:23;;;;;;;11.90;5.43;;;;;;;10.21;95.35;101219.59;5120761;27;20302;-86
2022/10/10 07:48:49;;;;;;;9.48;5.20;;;;;;;10.35;95.12;101229.47;5121192;27;20062;-86
2022/10/10 07:51:15;;;;;;;15.02;5.22;;;;;;;10.55;93.80;101228.66;5121027;27;20443;-85
2022/10/10 07:53:42;;;;;;;13.03;5.53;;;;;;;10.68;93.14;101232.22;5119963;27;20035;-87
2022/10/10 07:56:11;;;;;;;9.73;5.38;;;;;;;10.86;93.37;101244.34;5138132;27;20027;-86
2022/10/10 07:58:36;;;;;;;14.27;5.78;;;;;;;11.02;92.26;101232.25;5137591;27;20039;-85
2022/10/10 08:01:07;;;;;;;11.60;5.20;;;;;;;11.13;91.13;101236.22;5137733;27;20034;-86
2022/10/10 08:03:36;;;;;;;9.65;5.40;;;;;;;11.27;90.84;101237.88;5137901;27;20033;-86
2022/10/10 08:06:07;;;;;;;13.40;5.70;;;;;;;11.35;90.10;101239.53;5137199;27;20046;-87
2022/10/10 08:08:34;;;;;;;11.07;5.18;;;;;;;11.44;89.98;101240.16;5137953;27;20022;-87
2022/10/10 08:10:59;;;;;;;12.13;5.05;;;;;;;11.49;89.51;101232.22;5137255;27;20027;-87
2022/10/10 08:13:28;;;;;;;16.20;5.70;;;;;;;11.59;89.38;101240.78;5137254;27;20464;-87
2022/10/10 08:15:54;;;;;;;11.25;4.97;;;;;;;11.68;89.52;101234.06;5156028;27;20027;-87
2022/10/10 08:18:19;;;;;;;9.13;4.97;;;;;;;11.79;89.16;101235.25;5137024;27;20050;-87
2022/10/10 08:20:45;;;;;;;11.10;4.70;;;;;;;11.91;88.84;101244.44;5137929;27;20030;-87
2022/10/10 08:23:11;;;;;;;9.80;4.90;;;;;;;12.04;89.02;101238.13;5136997;27;20070;-87
2022/10/10 08:25:37;;;;;;;9.02;4.15;;;;;;;12.15;87.63;101238.50;5155483;27;20347;-87
2022/10/10 08:28:04;;;;;;;12.87;4.73;;;;;;;12.25;87.77;101242.44;5137194;27;20096;-87
2022/10/10 08:30:32;;;;;;;8.57;4.50;;;;;;;12.37;86.04;101244.47;5103390;27;20026;-87
2022/10/10 08:32:58;;;;;;;11.60;4.53;;;;;;;12.44;85.32;101246.09;5137540;27;20076;-87
2022/10/10 08:35:28;;;;;;;8.63;4.70;;;;;;;12.53;85.27;101252.13;5137664;27;20448;-87
2022/10/10 08:37:56;;;;;;;9.90;4.30;;;;;;;12.63;85.48;101244.31;5121110;27;20022;-86
2022/10/10 08:40:22;;;;;;;13.55;4.35;;;;;;;12.72;84.92;101246.78;5136728;27;20026;-86
2022/10/10 08:42:53;;;;;;;9.90;4.50;;;;;;;12.86;84.71;101236.59;5155184;27;20030;-87
2022/10/10 08:45:25;;;;;;;8.48;4.30;;;;;;;12.98;83.42;101240.31;5137268;27;20022;-86
2022/10/10 08:48:02;;;;;;;10.93;4.30;;;;;;;13.13;83.01;101243.50;5136670;27;20061;-86
2022/10/10 08:50:33;;;;;;;13.65;4.70;;;;;;;13.29;82.06;101255.75;5155199;27;20033;-87
2022/10/10 08:53:15;;;;;;;8.13;4.40;;;;;;;13.42;81.82;101246.66;5137017;27;20359;-87
2022/10/10 08:55:42;;;;;;;11.88;5.03;;;;;;;13.65;81.27;101245.16;5155997;27;20030;-87
2022/10/10 08:58:19;;;;;;;8.05;4.22;;;;;;;13.85;80.75;101245.75;5136352;27;20133;-87
2022/10/10 09:00:54;;;;;;;15.50;4.67;;;;;;;14.01;79.46;101238.00;5137626;27;20106;-85
2022/10/10 09:03:44;;;;;;;9.60;3.88;;;;;;;14.14;79.15;101242.47;5155596;27;20031;-86
2022/10/10 09:06:18;;;;;;;14.00;4.63;;;;;;;14.27;77.91;101249.66;5154548;27;20091;-86
2022/10/10 09:09:11;;;;;;;9.15;4.25;;;;;;;14.30;77.71;101246.47;5137065;27;20043;-86
2022/10/10 09:11:48;;;;;;;8.18;3.92;;;;;;;14.32;77.14;101242.47;5136725;27;20042;-86
2022/10/10 09:14:31;;;;;;;7.80;4.30;;;;;;;14.39;76.43;101256.00;5155262;27;20054;-86
2022/10/10 09:17:07;;;;;;;7.65;3.78;;;;;;;14.45;75.89;101257.81;5155584;27;20039;-86
2022/10/10 09:19:57;;;;;;;8.45;4.40;;;;;;;14.53;75.77;101256.66;5155364;27;20030;-86
2022/10/10 09:22:27;;;;;;;8.43;4.18;;;;;;;14.69;75.60;101260.66;5137341;27;20034;-85
2022/10/10 09:25:17;;;;;;;11.80;4.07;;;;;;;14.95;75.95;101255.88;5137438;27;20114;-86
2022/10/10 09:27:57;;;;;;;12.23;4.40;;;;;;;15.30;74.40;101268.75;5155216;27;20026;-84
2022/10/10 09:30:24;;;;;;;10.38;4.45;;;;;;;15.55;72.86;101273.97;5136803;27;20056;-84
2022/10/10 09:33:28;;;;;;;9.18;4.05;;;;;;;15.83;73.38;101273.28;5136066;27;20117;-84
2022/10/10 09:35:58;;;;;;;6.82;4.00;;;;;;;16.20;70.16;101283.91;5137030;27;20035;-84
2022/10/10 09:38:36;;;;;;;9.05;4.70;;;;;;;16.19;69.31;101276.75;5136593;27;20019;-84
2022/10/10 09:41:14;;;;;;;7.60;4.00;;;;;;;16.20;69.83;101292.09;5137371;27;20443;-85
2022/10/10 09:43:40;;;;;;;9.40;3.90;;;;;;;16.18;68.75;101277.84;5155085;27;20061;-84
2022/10/10 09:46:06;;;;;;;11.48;4.13;;;;;;;16.21;68.28;101284.72;5154498;27;20102;-84
2022/10/10 09:48:38;;;;;;;10.80;4.30;;;;;;;16.22;68.56;101281.75;5119292;27;20091;-84
2022/10/10 09:51:18;;;;;;;11.38;4.00;;;;;;;16.25;67.38;101294.94;5136561;27;20027;-84
2022/10/10 09:53:46;;;;;;;7.78;3.85;;;;;;;16.33;67.59;101285.53;5136733;27;20022;-84
2022/10/10 09:56:46;;;;;;;8.55;4.30;;;;;;;16.41;67.75;101303.47;5136267;27;20087;-84
2022/10/10 09:59:36;;;;;;;7.93;4.17;;;;;;;16.52;68.04;101290.81;5135245;27;20153;-84
2022/10/10 10:02:10;;;;;;;7.40;3.97;;;;;;;16.49;67.01;101294.88;5136173;27;20025;-84
2022/10/10 10:04:36;;;;;;;12.52;5.38;;;;;;;16.45;67.83;101293.72;5136273;27;20023;-85
2022/10/10 10:07:27;;;;;;;11.27;3.93;;;;;;;16.44;68.43;101290.13;5118688;27;20058;-85
2022/10/10 10:09:59;;;;;;;10.32;4.07;;;;;;;16.56;68.24;101291.97;5136116;27;20034;-85
2022/10/10 10:12:36;;;;;;;13.63;4.30;;;;;;;16.60;67.93;101293.97;5154430;27;20023;-84
2022/10/10 10:15:16;;;;;;;7.88;4.03;;;;;;;16.62;67.58;101294.59;5135658;27;20086;-85
2022/10/10 10:17:42;;;;;;;8.80;4.40;;;;;;;16.75;66.57;101293.44;5139640;27;20456;-84
2022/10/10 10:20:34;;;;;;;11.98;4.20;;;;;;;16.84;67.48;101291.97;5139650;27;20015;-84
2022/10/10 10:22:59;;;;;;;12.45;4.43;;;;;;;16.88;67.52;101297.00;5120895;27;20123;-84
2022/10/10 10:25:35;;;;;;;11.23;4.27;;;;;;;16.92;67.30;101296.25;5139928;27;20064;-84
2022/10/10 10:28:16;;;;;;;9.88;3.90;;;;;;;17.34;66.81;101298.59;5139722;27;20129;-85
2022/10/10 10:30:43;;;;;;;8.48;4.82;;;;;;;17.67;65.22;101302.41;5158429;27;20034;-84
2022/10/10 10:33:36;;;;;;;8.98;4.47;;;;;;;17.83;64.65;101302.59;5140270;27;20023;-84
2022/10/10 10:36:12;;;;;;;9.50;4.53;;;;;;;17.84;63.77;101309.75;5158383;27;20478;-85
2022/10/10 10:38:52;;;;;;;11.33;4.60;;;;;;;18.12;63.44;101306.06;5134558;27;20065;-85
2022/10/10 10:41:24;;;;;;;8.95;4.40;;;;;;;18.53;61.86;101309.28;5140157;27;20022;-85
2022/10/10 10:44:03;;;;;;;14.68;4.97;;;;;;;18.98;61.17;101312.78;5139422;27;20042;-85
2022/10/10 10:47:09;;;;;;;10.50;3.90;;;;;;;19.14;59.68;101308.28;5158090;27;20155;-84
2022/10/10 10:49:56;;;;;;;9.32;4.03;;;;;;;18.82;58.96;101313.72;5139380;27;20027;-85
2022/10/10 10:52:50;;;;;;;13.90;4.80;;;;;;;18.92;59.73;101320.16;5139516;27;20042;-84
2022/10/10 10:55:36;;;;;;;13.55;4.80;;;;;;;19.41;59.07;101327.50;5138615;27;20031;-85
2022/10/10 10:58:23;;;;;;;10.85;3.67;;;;;;;19.80;57.30;101324.47;5139326;27;20469;-85
2022/10/10 11:01:01;;;;;;;6.80;3.50;;;;;;;19.93;57.63;101327.84;5138975;27;20026;-85
2022/10/10 11:03:44;;;;;;;9.48;3.50;;;;;;;20.06;56.29;101326.53;5138878;27;20083;-85
2022/10/10 11:06:24;;;;;;;8.43;3.67;;;;;;;20.48;54.89;101342.97;5138704;27;20062;-85
2022/10/10 11:09:14;;;;;;;8.95;4.20;;;;;;;20.45;53.95;101340.75;5138809;27;20130;-85
2022/10/10 11:12:22;;;;;;;11.27;4.28;;;;;;;20.18;54.82;101340.91;5157333;27;20105;-85
2022/10/10 11:14:56;;;;;;;12.82;4.47;;;;;;;20.02;54.94;101341.94;5127185;27;20031;-85
2022/10/10 11:17:29;;;;;;;11.02;4.45;;;;;;;19.91;54.49;101343.81;5138634;27;20087;-84
2022/10/10 11:20:05;;;;;;;7.73;4.47;;;;;;;20.68;54.06;101344.16;5157529;27;20026;-85
2022/10/10 11:22:41;;;;;;;11.70;4.40;;;;;;;22.47;51.21;101345.19;5138814;27;20026;-85
2022/10/10 11:25:24;;;;;;;10.27;4.50;;;;;;;26.13;44.22;101338.00;5138659;27;20109;-85
2022/10/10 11:27:59;;;;;;;13.27;4.47;;;;;;;27.30;38.59;101342.91;5138478;27;20427;-85
2022/10/10 11:30:31;;;;;;;10.57;4.40;;;;;;;27.28;37.07;101347.13;5138830;27;20084;-85
2022/10/10 11:33:10;;;;;;;12.37;4.60;;;;;;;27.85;37.35;101346.50;5138353;27;20038;-85
2022/10/10 11:35:43;;;;;;;9.60;4.32;;;;;;;27.95;36.41;101348.19;5138600;27;20029;-85
2022/10/10 11:38:38;;;;;;;8.73;4.35;;;;;;;29.18;35.01;101335.31;5138495;27;20022;-85
2022/10/10 11:41:29;;;;;;;11.13;4.18;;;;;;;30.46;32.44;101329.94;5137785;27;20025;-86
2022/10/10 11:43:59;;;;;;;9.48;4.03;;;;;;;29.82;31.51;101337.31;5156678;27;20035;-86
2022/10/10 11:46:40;;;;;;;8.30;4.20;;;;;;;30.78;32.30;101331.19;5138153;27;20378;-86
2022/10/10 11:49:12;;;;;;;8.75;4.50;;;;;;;32.39;28.71;101331.56;5137920;27;20030;-86
2022/10/10 11:51:48;;;;;;;9.52;4.65;;;;;;;31.19;29.50;101325.91;5137868;27;20031;-86
2022/10/10 11:54:26;;;;;;;10.80;4.60;;;;;;;30.41;31.10;101325.38;5156989;27;20072;-86
2022/10/10 11:56:56;;;;;;;13.52;4.45;;;;;;;28.57;32.28;101332.47;5137619;27;20022;-85
2022/10/10 11:59:30;;;;;;;13.47;4.40;;;;;;;27.21;35.39;101330.88;5137503;27;20030;-86
2022/10/10 12:02:02;;;;;;;10.57;4.80;;;;;;;26.61;35.92;101323.63;5138123;27;20511;-85
2022/10/10 12:04:37;;;;;;;14.05;4.50;;;;;;;26.73;36.95;101334.25;5137707;27;20076;-86
2022/10/10 12:07:14;;;;;;;9.05;4.38;;;;;;;27.18;35.89;101333.47;5136985;27;20146;-86
2022/10/10 12:09:49;;;;;;;14.65;4.40;;;;;;;27.53;35.62;101339.28;5137835;27;20079;-86
2022/10/10 12:12:22;;;;;;;11.30;5.03;;;;;;;27.71;35.01;101345.78;5137460;27;20029;-85
2022/10/10 12:14:54;;;;;;;9.85;4.65;;;;;;;27.52;34.26;101346.84;5137579;27;20041;-86
2022/10/10 12:17:30;;;;;;;8.93;4.50;;;;;;;27.07;35.81;101344.03;5137154;27;20051;-86
2022/10/10 12:20:19;;;;;;;10.20;4.30;;;;;;;27.03;36.05;101346.63;5155847;27;20029;-86
2022/10/10 12:22:46;;;;;;;8.73;4.75;;;;;;;28.83;33.92;101341.72;5137584;27;20462;-85
2022/10/10 12:25:34;;;;;;;13.80;4.40;;;;;;;31.05;31.31;101345.81;5137557;27;20034;-85
2022/10/10 12:28:04;;;;;;;11.57;4.97;;;;;;;33.70;26.98;101340.53;5136723;27;20027;-85
2022/10/10 12:30:30;;;;;;;11.63;5.10;;;;;;;33.14;26.28;101343.41;5137321;27;20027;-86
2022/10/10 12:32:56;;;;;;;11.70;4.67;;;;;;;32.69;27.42;101336.94;5137575;27;20446;-86
2022/10/10 12:35:35;;;;;;;10.50;4.90;;;;;;;34.43;24.93;101338.34;5137401;27;20030;-86